Time;durP1;ratioP1;P1;durP2;ratioP2;P2;SDS_P1;SDS_P2;PMS_P1;PMS_P2;Temp;Humidity;BMP_temperature;BMP_pressure;BME280_temperature;BME280_humidity;BME280_pressure;Samples;Min_cycle;Max_cycle;Signal;HPM_P1;HPM_P2
2023/04/28 00:00:21;;;;;;;4.63;3.08;;;;;;;-146.07;100.00;70291.31;10424348;28;20921;-72
2023/04/28 00:05:24;;;;;;;3.00;2.60;;;;;;;-146.07;100.00;70291.31;10424750;28;20032;-72
2023/04/28 00:10:27;;;;;;;4.07;2.75;;;;;;;-146.07;100.00;70291.31;10403774;28;20024;-71
2023/04/28 00:15:27;;;;;;;6.57;3.15;;;;;;;-146.07;100.00;70291.31;10428001;28;20080;-72
2023/04/28 00:20:27;;;;;;;6.00;3.33;;;;;;;-146.07;100.00;70291.31;10422103;28;20045;-71
2023/04/28 00:25:28;;;;;;;5.53;3.20;;;;;;;-146.07;100.00;70291.31;10424485;28;20039;-71
2023/04/28 00:30:29;;;;;;;5.97;2.73;;;;;;;-146.07;100.00;70291.31;10423926;28;20033;-72
2023/04/28 00:35:30;;;;;;;10.70;3.45;;;;;;;-146.07;100.00;70291.31;10406571;28;20348;-72
2023/04/28 00:40:35;;;;;;;5.53;3.42;;;;;;;-146.07;100.00;70291.31;10423112;28;20036;-73
2023/04/28 00:45:36;;;;;;;7.75;2.97;;;;;;;-146.07;100.00;70291.31;10422358;28;20076;-73
2023/04/28 00:50:36;;;;;;;9.45;3.47;;;;;;;-146.07;100.00;70291.31;10405447;28;20025;-73
2023/04/28 00:55:37;;;;;;;5.28;3.30;;;;;;;-146.07;100.00;70291.31;10421827;28;20088;-72
2023/04/28 01:00:38;;;;;;;6.22;3.63;;;;;;;-146.07;100.00;70291.31;10422284;28;20032;-71
2023/04/28 01:05:38;;;;;;;10.67;3.33;;;;;;;-146.07;100.00;70291.31;10421769;28;20032;-71
2023/04/28 01:10:43;;;;;;;4.80;3.55;;;;;;;-146.07;100.00;70291.31;10404249;28;20264;-72
2023/04/28 01:15:44;;;;;;;8.18;3.70;;;;;;;-146.07;100.00;70291.31;10421693;28;20154;-72
2023/04/28 01:20:44;;;;;;;6.40;3.20;;;;;;;-146.07;100.00;70291.31;10421376;28;20091;-73
2023/04/28 01:25:45;;;;;;;5.28;3.35;;;;;;;-146.07;100.00;70291.31;10422291;28;20033;-72
2023/04/28 01:30:45;;;;;;;5.82;3.13;;;;;;;-146.07;100.00;70291.31;10420305;28;20468;-73
2023/04/28 01:35:46;;;;;;;8.88;3.50;;;;;;;-146.07;100.00;70291.31;10418690;28;20037;-72
2023/04/28 01:40:46;;;;;;;7.85;3.50;;;;;;;-146.07;100.00;70291.31;10419505;28;20032;-73
2023/04/28 01:45:47;;;;;;;8.77;4.18;;;;;;;-146.07;100.00;70291.31;10417585;28;20044;-72
2023/04/28 01:50:47;;;;;;;6.97;3.58;;;;;;;-146.07;100.00;70291.31;10417480;28;20025;-72
2023/04/28 01:55:47;;;;;;;12.05;4.70;;;;;;;-146.07;100.00;70291.31;10417861;28;20356;-72
2023/04/28 02:00:48;;;;;;;6.22;3.85;;;;;;;-146.07;100.00;70291.31;10415008;28;20033;-72
2023/04/28 02:05:49;;;;;;;6.47;3.35;;;;;;;-146.07;100.00;70291.31;10419486;28;20029;-71
2023/04/28 02:10:49;;;;;;;9.18;5.28;;;;;;;-146.07;100.00;70291.31;10418603;28;20024;-72
2023/04/28 02:15:50;;;;;;;6.53;3.28;;;;;;;-146.07;100.00;70291.31;10420735;28;20091;-72
2023/04/28 02:20:50;;;;;;;8.88;3.95;;;;;;;-146.07;100.00;70291.31;10424317;28;20029;-72
2023/04/28 02:26:00;;;;;;;11.07;4.17;;;;;;;-146.07;100.00;70291.31;10428758;28;20033;-72
2023/04/28 02:31:08;;;;;;;8.20;4.10;;;;;;;-146.07;100.00;70291.31;10428486;28;20664;-72
2023/04/28 02:36:09;;;;;;;9.60;4.10;;;;;;;-146.07;100.00;70291.31;10427810;28;20086;-73
2023/04/28 02:41:10;;;;;;;6.28;3.80;;;;;;;-146.07;100.00;70291.31;10428243;28;20610;-73
2023/04/28 02:46:10;;;;;;;7.35;4.35;;;;;;;-146.07;100.00;70291.31;10428071;28;20039;-72
2023/04/28 02:51:12;;;;;;;5.25;3.17;;;;;;;-146.07;100.00;70291.31;10428483;28;20529;-72
2023/04/28 02:56:13;;;;;;;6.47;3.38;;;;;;;-146.07;100.00;70291.31;10427702;28;20033;-73
2023/04/28 03:01:14;;;;;;;6.55;4.32;;;;;;;-146.07;100.00;70291.31;10426239;28;20059;-74
2023/04/28 03:06:14;;;;;;;9.57;4.18;;;;;;;-146.07;100.00;70291.31;10408157;28;20125;-73
2023/04/28 03:11:15;;;;;;;5.55;3.33;;;;;;;-146.07;100.00;70291.31;10424180;28;20518;-73
2023/04/28 03:16:15;;;;;;;7.70;3.97;;;;;;;-146.07;100.00;70291.31;10425827;28;20053;-73
2023/04/28 03:21:15;;;;;;;14.10;3.78;;;;;;;-146.07;100.00;70291.31;10425889;28;20029;-74
2023/04/28 03:26:16;;;;;;;7.57;3.67;;;;;;;-146.07;100.00;70291.31;10424584;28;20037;-72
2023/04/28 03:31:16;;;;;;;5.25;3.22;;;;;;;-146.07;100.00;70291.31;10421701;28;20044;-73
2023/04/28 03:36:17;;;;;;;9.05;3.63;;;;;;;-146.07;100.00;70291.31;10424095;28;20041;-72
2023/04/28 03:41:17;;;;;;;6.78;3.72;;;;;;;-146.07;100.00;70291.31;10421340;28;20430;-73
2023/04/28 03:46:18;;;;;;;8.32;4.50;;;;;;;-146.07;100.00;70291.31;10407233;28;20078;-72
2023/04/28 03:51:18;;;;;;;3.90;3.50;;;;;;;-146.07;100.00;70291.31;10422724;28;20028;-73
2023/04/28 03:56:19;;;;;;;6.93;3.05;;;;;;;-146.07;100.00;70291.31;10420469;28;20271;-73
2023/04/28 04:01:20;;;;;;;7.03;3.70;;;;;;;-146.07;100.00;70291.31;10420109;28;20033;-73
2023/04/28 04:06:21;;;;;;;7.45;3.45;;;;;;;-146.07;100.00;70291.31;10423889;28;20111;-71
2023/04/28 04:11:21;;;;;;;7.00;3.60;;;;;;;-146.07;100.00;70291.31;10423542;28;20094;-71
2023/04/28 04:16:22;;;;;;;7.93;4.07;;;;;;;-146.07;100.00;70291.31;10423221;28;20553;-71
2023/04/28 04:21:22;;;;;;;8.52;4.00;;;;;;;-146.07;100.00;70291.31;10423229;28;20044;-71
2023/04/28 04:26:23;;;;;;;5.38;4.35;;;;;;;-146.07;100.00;70291.31;10423532;28;20082;-70
2023/04/28 04:31:23;;;;;;;11.70;5.35;;;;;;;-146.07;100.00;70291.31;10421756;28;20028;-71
2023/04/28 04:36:24;;;;;;;8.05;5.30;;;;;;;-146.07;100.00;70291.31;10424009;28;20467;-71
2023/04/28 04:41:25;;;;;;;9.60;4.38;;;;;;;-146.07;100.00;70291.31;10422690;28;20055;-70
2023/04/28 04:46:26;;;;;;;8.18;3.90;;;;;;;-146.07;100.00;70291.31;10419618;28;20086;-69
2023/04/28 04:51:26;;;;;;;7.93;3.85;;;;;;;-146.07;100.00;70291.31;10401319;28;20025;-69
2023/04/28 04:56:27;;;;;;;6.97;3.95;;;;;;;-146.07;100.00;70291.31;10418704;28;20644;-70
2023/04/28 05:01:28;;;;;;;14.02;3.67;;;;;;;-146.07;100.00;70291.31;10393268;28;20024;-70
2023/04/28 05:06:28;;;;;;;12.60;2.95;;;;;;;-146.07;100.00;70291.31;10416464;28;20033;-70
2023/04/28 05:11:29;;;;;;;11.43;4.30;;;;;;;-146.07;100.00;70291.31;10419109;28;20027;-70
2023/04/28 05:16:29;;;;;;;7.50;3.65;;;;;;;-146.07;100.00;70291.31;10420340;28;20059;-72
2023/04/28 05:21:30;;;;;;;8.32;3.65;;;;;;;-146.07;100.00;70291.31;10421960;28;20028;-72
2023/04/28 05:26:30;;;;;;;4.65;2.97;;;;;;;-146.07;100.00;70291.31;10421390;28;20158;-69
2023/04/28 05:31:31;;;;;;;7.90;2.60;;;;;;;-146.07;100.00;70291.31;10421952;28;20044;-69
2023/04/28 05:36:31;;;;;;;12.48;3.55;;;;;;;-146.07;100.00;70291.31;10421441;28;20044;-71
2023/04/28 05:41:33;;;;;;;7.63;3.97;;;;;;;-146.07;100.00;70291.31;10420960;28;20536;-69
2023/04/28 05:46:35;;;;;;;5.18;2.65;;;;;;;-146.07;100.00;70291.31;10421292;28;20028;-70
2023/04/28 05:51:36;;;;;;;12.15;3.05;;;;;;;-146.07;100.00;70291.31;10404538;28;20399;-70
2023/04/28 05:56:36;;;;;;;9.60;2.90;;;;;;;-146.07;100.00;70291.31;10402224;28;20021;-70
2023/04/28 06:01:37;;;;;;;6.60;2.92;;;;;;;-146.07;100.00;70291.31;10420922;28;20033;-70
2023/04/28 06:06:38;;;;;;;7.65;3.35;;;;;;;-146.07;100.00;70291.31;10421320;28;20032;-71
2023/04/28 06:11:38;;;;;;;6.03;2.67;;;;;;;-146.07;100.00;70291.31;10421171;28;20387;-71
2023/04/28 06:16:39;;;;;;;5.38;2.50;;;;;;;-146.07;100.00;70291.31;10421104;28;20770;-70
2023/04/28 06:21:40;;;;;;;9.38;2.83;;;;;;;-146.07;100.00;70291.31;10402825;28;20044;-70
2023/04/28 06:26:40;;;;;;;6.70;2.83;;;;;;;-146.07;100.00;70291.31;10420402;28;20032;-70
2023/04/28 06:31:41;;;;;;;4.93;3.00;;;;;;;-146.07;100.00;70291.31;10420170;28;20032;-70
2023/04/28 06:36:41;;;;;;;7.77;3.00;;;;;;;-146.07;100.00;70291.31;10402755;28;20036;-70
2023/04/28 06:41:42;;;;;;;11.23;2.20;;;;;;;-146.07;100.00;70291.31;10420580;28;20319;-71
2023/04/28 06:46:42;;;;;;;5.63;2.43;;;;;;;-146.07;100.00;70291.31;10421002;28;20033;-71
2023/04/28 06:51:42;;;;;;;12.47;2.77;;;;;;;-146.07;100.00;70291.31;10419978;28;20770;-71
2023/04/28 06:56:43;;;;;;;13.43;4.17;;;;;;;-146.07;100.00;70291.31;10420567;28;20267;-71
2023/04/28 07:01:43;;;;;;;5.65;2.63;;;;;;;-146.07;100.00;70291.31;10420637;28;20035;-71
2023/04/28 07:06:44;;;;;;;10.37;3.10;;;;;;;-146.07;100.00;70291.31;10403387;28;20086;-71
2023/04/28 07:11:45;;;;;;;5.03;2.47;;;;;;;-146.07;100.00;70291.31;10427925;28;20777;-71
2023/04/28 07:16:45;;;;;;;8.23;3.00;;;;;;;6.26;83.90;94970.81;10426708;28;20049;-71
2023/04/28 07:21:46;;;;;;;12.57;2.17;;;;;;;20.39;29.67;95115.84;10426926;28;20032;-71
2023/04/28 07:26:46;;;;;;;4.15;2.47;;;;;;;21.06;31.10;95123.63;10426679;28;20082;-71
2023/04/28 07:31:47;;;;;;;5.90;1.63;;;;;;;20.96;31.60;95111.91;10426932;28;20159;-70
2023/04/28 07:36:47;;;;;;;5.10;2.03;;;;;;;21.72;31.14;95117.50;10427272;28;20763;-70
2023/04/28 07:41:47;;;;;;;11.33;2.63;;;;;;;21.51;30.23;95118.28;10426226;28;20317;-70
2023/04/28 07:46:48;;;;;;;10.53;2.13;;;;;;;20.81;30.78;95121.47;10426180;28;20267;-70
2023/04/28 07:51:50;;;;;;;6.47;2.55;;;;;;;21.73;30.55;95124.59;10426330;28;20033;-70
2023/04/28 07:56:51;;;;;;;7.45;2.40;;;;;;;22.15;28.72;95118.25;10425690;28;20036;-70
2023/04/28 08:01:51;;;;;;;6.68;1.60;;;;;;;22.80;28.65;95103.97;10408035;28;20412;-71
2023/04/28 08:06:53;;;;;;;5.70;1.80;;;;;;;23.48;29.23;95117.06;10425447;28;20043;-70
2023/04/28 08:11:53;;;;;;;7.22;2.20;;;;;;;23.81;27.96;95105.09;10425418;28;20025;-71
2023/04/28 08:16:54;;;;;;;2.00;1.17;;;;;;;23.77;27.69;95108.88;10406198;28;20024;-71
2023/04/28 08:21:54;;;;;;;3.58;1.85;;;;;;;21.94;28.47;95107.34;10424872;28;20424;-71
2023/04/28 08:26:55;;;;;;;7.63;1.80;;;;;;;23.15;27.57;95109.84;10406444;28;20021;-71
2023/04/28 08:31:55;;;;;;;2.65;1.83;;;;;;;24.25;25.85;95096.09;10424612;28;20086;-71
2023/04/28 08:36:56;;;;;;;6.73;1.97;;;;;;;21.83;29.36;95098.75;10422405;28;20530;-71
2023/04/28 08:41:56;;;;;;;6.82;2.30;;;;;;;22.60;27.25;95098.25;10423151;28;20279;-69
2023/04/28 08:47:00;;;;;;;9.03;1.87;;;;;;;23.40;26.07;95084.28;10423419;28;20432;-70
2023/04/28 08:52:00;;;;;;;6.50;2.05;;;;;;;24.03;26.76;95073.56;10423412;28;20283;-70
2023/04/28 08:57:01;;;;;;;9.67;2.20;;;;;;;22.62;29.41;95081.47;10422340;28;20380;-70
2023/04/28 09:02:01;;;;;;;5.17;2.40;;;;;;;23.84;27.12;95078.88;10423188;28;20741;-69
2023/04/28 09:07:01;;;;;;;6.28;1.90;;;;;;;25.14;26.07;95068.41;10421182;28;20279;-70
2023/04/28 09:12:03;;;;;;;2.43;1.33;;;;;;;24.20;25.93;95068.91;10421889;28;20028;-71
2023/04/28 09:17:11;;;;;;;6.90;1.92;;;;;;;21.49;30.04;95067.81;10432615;28;20855;-70
2023/04/28 09:22:12;;;;;;;4.97;1.80;;;;;;;20.23;31.95;95058.25;10421770;28;20025;-70
2023/04/28 09:27:14;;;;;;;7.70;2.40;;;;;;;23.59;27.18;95054.28;10422308;28;20025;-71
2023/04/28 09:32:17;;;;;;;4.65;2.13;;;;;;;25.40;25.88;95045.84;10420992;28;20263;-71
2023/04/28 09:37:18;;;;;;;7.88;1.95;;;;;;;26.14;24.96;95036.66;10421659;28;20090;-71
2023/04/28 09:42:46;;;;;;;7.38;1.92;;;;;;;25.50;25.58;95027.94;10422081;28;20478;-71
2023/04/28 09:47:47;;;;;;;6.15;1.65;;;;;;;26.44;24.03;95023.03;10402078;28;20472;-71
2023/04/28 09:53:10;;;;;;;4.32;1.50;;;;;;;27.01;22.86;95019.56;10421881;28;20078;-70
2023/04/28 09:58:12;;;;;;;13.23;2.63;;;;;;;28.20;23.71;95007.22;10420985;28;20033;-70
2023/04/28 10:03:14;;;;;;;5.68;1.45;;;;;;;28.73;22.58;94989.50;10421207;28;20036;-70
2023/04/28 10:08:15;;;;;;;4.00;1.30;;;;;;;28.64;22.51;94994.56;10420138;28;20086;-69
2023/04/28 10:13:16;;;;;;;3.55;1.40;;;;;;;29.34;21.27;94986.31;10420925;28;20056;-70
2023/04/28 10:18:17;;;;;;;6.38;1.40;;;;;;;29.87;20.43;94979.41;10420541;28;20027;-70
2023/04/28 10:23:43;;;;;;;8.85;1.67;;;;;;;30.37;20.94;94975.13;10421337;28;20033;-70
2023/04/28 10:28:49;;;;;;;5.50;1.73;;;;;;;29.14;22.99;94972.75;10420863;28;20082;-70
2023/04/28 10:33:49;;;;;;;3.00;1.25;;;;;;;29.89;20.84;94968.72;10420722;28;20408;-71
2023/04/28 10:39:13;;;;;;;3.73;1.40;;;;;;;29.88;21.09;94961.59;10420005;28;20382;-70
2023/04/28 10:44:28;;;;;;;8.52;1.90;;;;;;;30.19;20.82;94953.72;10426397;28;20402;-70
2023/04/28 10:49:56;;;;;;;3.60;1.33;;;;;;;30.26;21.08;94950.16;10401709;28;20427;-70
2023/04/28 10:55:31;;;;;;;3.88;1.30;;;;;;;28.02;20.74;94939.94;10408170;28;20122;-70
2023/04/28 11:00:32;;;;;;;4.65;1.75;;;;;;;28.51;21.23;94935.19;10426917;28;20029;-70
2023/04/28 11:05:35;;;;;;;5.67;1.53;;;;;;;28.93;20.75;94940.22;10426751;28;20482;-70
2023/04/28 11:11:11;;;;;;;3.75;1.40;;;;;;;24.90;22.61;94941.03;10426908;28;20071;-69
2023/04/28 11:16:16;;;;;;;3.65;1.65;;;;;;;22.99;24.26;94942.47;10408963;28;20067;-69
2023/04/28 11:21:22;;;;;;;6.30;2.45;;;;;;;22.99;24.26;94942.47;10427192;28;20549;-69
2023/04/28 11:26:22;;;;;;;3.97;1.33;;;;;;;19.04;32.51;94946.06;10408808;28;20036;-69
2023/04/28 11:31:24;;;;;;;6.65;2.17;;;;;;;18.46;30.92;94935.31;10426486;28;20036;-68
2023/04/28 11:36:26;;;;;;;4.32;1.85;;;;;;;17.48;31.25;94937.19;10426100;28;20043;-68
2023/04/28 11:41:27;;;;;;;2.80;1.70;;;;;;;17.33;33.99;94935.66;10423842;28;20139;-68
2023/04/28 11:46:27;;;;;;;3.55;1.40;;;;;;;17.26;32.78;94933.38;10423065;28;20464;-67
2023/04/28 11:51:28;;;;;;;4.90;2.23;;;;;;;17.28;33.51;94919.50;10405289;28;20480;-68
2023/04/28 11:56:29;;;;;;;10.60;2.10;;;;;;;16.95;31.48;94922.50;10423038;28;20286;-67
2023/04/28 12:01:30;;;;;;;3.92;1.60;;;;;;;16.85;32.51;94921.59;10419476;28;20119;-67
2023/04/28 12:06:31;;;;;;;3.83;1.80;;;;;;;16.54;32.43;94919.59;10423267;28;20036;-68
2023/04/28 12:11:31;;;;;;;2.60;1.63;;;;;;;16.81;29.67;94912.47;10423056;28;20066;-68
2023/04/28 12:16:38;;;;;;;4.38;1.65;;;;;;;16.13;30.39;94901.53;10398077;28;20628;-68
2023/04/28 12:21:39;;;;;;;4.90;1.75;;;;;;;15.89;32.23;94897.16;10422548;28;20035;-68
2023/04/28 12:26:39;;;;;;;3.28;1.75;;;;;;;15.80;32.26;94893.53;10422121;28;20039;-68
2023/04/28 12:31:51;;;;;;;6.32;1.88;;;;;;;15.49;34.39;94901.44;10422192;28;20036;-69
2023/04/28 12:36:51;;;;;;;5.18;1.40;;;;;;;15.30;35.32;94890.69;10421827;28;20052;-71
2023/04/28 12:41:54;;;;;;;7.60;2.27;;;;;;;15.58;34.11;94883.38;10421660;28;20121;-70
2023/04/28 12:46:54;;;;;;;5.18;1.50;;;;;;;15.44;36.25;94875.22;10421917;28;20340;-69
2023/04/28 12:51:55;;;;;;;5.38;2.25;;;;;;;15.11;38.92;94874.50;10421042;28;20024;-70
2023/04/28 12:56:56;;;;;;;3.37;2.20;;;;;;;15.14;35.92;94871.19;10420599;28;20025;-70
2023/04/28 13:01:56;;;;;;;5.53;1.92;;;;;;;15.30;36.76;94860.91;10421428;28;20797;-71
2023/04/28 13:06:57;;;;;;;7.57;1.90;;;;;;;15.21;36.20;94856.16;10421083;28;20039;-71
2023/04/28 13:11:58;;;;;;;7.38;1.98;;;;;;;15.02;34.90;94852.72;10420169;28;20082;-71
2023/04/28 13:16:58;;;;;;;3.10;1.95;;;;;;;15.45;36.39;94849.75;10421053;28;20094;-70
2023/04/28 13:21:59;;;;;;;2.80;1.90;;;;;;;15.18;36.88;94840.53;10420100;28;20503;-70
2023/04/28 13:26:59;;;;;;;2.95;1.80;;;;;;;15.15;35.07;94849.25;10420793;28;20098;-71
2023/04/28 13:32:00;;;;;;;5.30;1.95;;;;;;;15.19;35.73;94841.31;10420613;28;20036;-69
2023/04/28 13:37:00;;;;;;;5.22;1.55;;;;;;;15.25;34.35;94840.13;10419676;28;20067;-69
2023/04/28 13:42:01;;;;;;;5.50;2.17;;;;;;;15.15;37.30;94837.59;10421125;28;20131;-70
2023/04/28 13:47:02;;;;;;;3.30;1.98;;;;;;;15.48;38.57;94845.66;10420316;28;20028;-70
2023/04/28 13:52:02;;;;;;;6.43;1.67;;;;;;;15.42;35.84;94834.13;10399119;28;20048;-70
2023/04/28 13:57:03;;;;;;;2.72;1.60;;;;;;;15.57;37.18;94826.78;10401556;28;20075;-69
2023/04/28 14:02:03;;;;;;;7.97;1.93;;;;;;;15.61;36.68;94828.56;10419723;28;20033;-71
2023/04/28 14:07:03;;;;;;;6.78;2.17;;;;;;;15.52;39.14;94814.94;10419259;28;20032;-70
2023/04/28 14:12:05;;;;;;;3.30;1.85;;;;;;;15.64;37.86;94821.75;10418798;28;20454;-70
2023/04/28 14:17:05;;;;;;;3.67;1.50;;;;;;;15.57;36.95;94818.66;10423400;28;20025;-70
2023/04/28 14:22:05;;;;;;;11.68;2.08;;;;;;;15.58;38.79;94820.25;10427186;28;20053;-70
2023/04/28 14:27:07;;;;;;;5.63;2.33;;;;;;;15.55;37.51;94816.25;10427113;28;20478;-70
2023/04/28 14:32:07;;;;;;;4.93;1.92;;;;;;;15.57;37.66;94811.31;10409239;28;20028;-71
2023/04/28 14:37:08;;;;;;;5.53;2.17;;;;;;;15.58;36.94;94801.31;10428005;28;20086;-71
2023/04/28 14:42:08;;;;;;;9.02;2.90;;;;;;;15.57;35.87;94786.94;10428695;28;20329;-71
2023/04/28 14:47:09;;;;;;;5.53;2.40;;;;;;;15.60;36.05;94786.34;10427841;28;20031;-71
2023/04/28 14:52:10;;;;;;;5.03;1.90;;;;;;;15.41;35.73;94794.59;10427644;28;20080;-71
2023/04/28 14:57:10;;;;;;;7.78;2.40;;;;;;;15.39;36.59;94780.53;10426261;28;20033;-71
2023/04/28 15:02:12;;;;;;;9.73;1.77;;;;;;;15.38;35.87;94790.56;10427171;28;20029;-70
2023/04/28 15:07:13;;;;;;;7.78;2.22;;;;;;;15.33;36.47;94793.38;10427405;28;20267;-70
2023/04/28 15:12:13;;;;;;;3.88;2.28;;;;;;;14.97;37.43;94799.50;10426877;28;20057;-71
2023/04/28 15:17:14;;;;;;;6.40;3.13;;;;;;;15.00;37.97;94795.38;10427077;28;20032;-71
2023/04/28 15:22:14;;;;;;;4.93;1.75;;;;;;;14.83;36.75;94788.66;10426875;28;20090;-71
2023/04/28 15:27:15;;;;;;;9.18;2.58;;;;;;;15.01;37.52;94792.41;10426305;28;20059;-71
2023/04/28 15:32:24;;;;;;;4.10;2.25;;;;;;;15.07;36.73;94795.00;10426252;28;20033;-71
2023/04/28 15:37:37;;;;;;;3.53;2.10;;;;;;;15.15;36.95;94789.69;10426055;28;20037;-71
2023/04/28 15:42:40;;;;;;;9.20;2.05;;;;;;;15.07;38.06;94789.56;10426163;28;20028;-71
2023/04/28 15:47:46;;;;;;;5.55;1.85;;;;;;;14.96;37.84;94784.38;10408049;28;20036;-71
2023/04/28 15:52:48;;;;;;;7.10;2.42;;;;;;;15.03;37.38;94786.69;10424980;28;20122;-71
2023/04/28 15:57:49;;;;;;;7.00;2.13;;;;;;;14.99;38.09;94788.38;10407797;28;20488;-71
2023/04/28 16:02:50;;;;;;;5.78;3.22;;;;;;;14.89;37.81;94772.31;10425854;28;20040;-71
2023/04/28 16:07:51;;;;;;;2.67;1.57;;;;;;;14.93;37.73;94773.31;10425038;28;20395;-72
2023/04/28 16:12:52;;;;;;;6.50;2.63;;;;;;;14.83;37.10;94764.31;10424743;28;20764;-70
2023/04/28 16:17:52;;;;;;;5.35;2.03;;;;;;;14.46;37.50;94770.63;10424392;28;20033;-70
2023/04/28 16:22:52;;;;;;;11.27;2.72;;;;;;;14.47;38.22;94778.44;10424143;28;20025;-72
2023/04/28 16:27:53;;;;;;;4.65;1.90;;;;;;;14.44;37.30;94779.03;10407524;28;20020;-71
2023/04/28 16:32:57;;;;;;;5.15;2.35;;;;;;;14.35;38.33;94781.59;10423919;28;20024;-72
2023/04/28 16:37:57;;;;;;;4.28;2.60;;;;;;;14.26;38.36;94787.97;10423222;28;20021;-71
2023/04/28 16:42:57;;;;;;;9.13;2.53;;;;;;;14.19;38.85;94789.16;10423907;28;20701;-70
2023/04/28 16:47:58;;;;;;;4.77;2.50;;;;;;;14.24;37.86;94780.16;10423478;28;20400;-71
2023/04/28 16:52:58;;;;;;;3.33;1.87;;;;;;;14.12;38.30;94787.91;10424045;28;20633;-71
2023/04/28 16:57:59;;;;;;;6.50;2.67;;;;;;;13.95;38.16;94793.84;10423271;28;20275;-71
2023/04/28 17:02:59;;;;;;;7.30;2.15;;;;;;;13.82;38.16;94798.09;10422562;28;20024;-71
2023/04/28 17:08:00;;;;;;;4.82;2.10;;;;;;;13.69;37.94;94810.44;10422576;28;20135;-71
2023/04/28 17:13:00;;;;;;;9.90;2.70;;;;;;;13.56;38.73;94817.34;10411425;28;20053;-76
2023/04/28 17:18:01;;;;;;;6.23;2.17;;;;;;;13.47;38.51;94810.97;10403294;28;20036;-76
2023/04/28 17:23:05;;;;;;;7.28;3.10;;;;;;;13.36;38.00;94817.59;10396949;28;20284;-77
2023/04/28 17:28:06;;;;;;;3.75;2.55;;;;;;;13.21;38.95;94824.75;10406511;28;20498;-76
2023/04/28 17:33:06;;;;;;;10.65;4.72;;;;;;;13.12;40.02;94832.66;10392632;28;20044;-69
2023/04/28 17:38:07;;;;;;;9.87;2.17;;;;;;;13.05;39.95;94832.22;10403614;28;20024;-73
2023/04/28 17:43:08;;;;;;;6.50;2.20;;;;;;;12.91;40.46;94836.69;10401481;28;20930;-78
2023/04/28 17:48:08;;;;;;;6.47;2.60;;;;;;;12.77;41.26;94840.03;10397523;28;20487;-78
2023/04/28 17:53:09;;;;;;;13.57;3.37;;;;;;;12.53;42.61;94852.66;10384563;28;20099;-78
2023/04/28 17:58:09;;;;;;;8.63;3.92;;;;;;;12.47;42.21;94863.50;10397194;28;20615;-78
2023/04/28 18:03:10;;;;;;;10.45;4.53;;;;;;;12.38;42.18;94862.47;10401900;28;20036;-77
2023/04/28 18:08:10;;;;;;;10.30;4.60;;;;;;;12.32;43.16;94874.38;10397968;28;20043;-78
2023/04/28 18:13:11;;;;;;;13.30;4.53;;;;;;;12.20;44.06;94887.41;10390069;28;20037;-78
2023/04/28 18:18:12;;;;;;;8.05;4.18;;;;;;;12.08;45.23;94898.50;10388738;28;20476;-77
2023/04/28 18:23:12;;;;;;;11.80;4.88;;;;;;;11.96;47.23;94894.25;10403398;28;20033;-80
2023/04/28 18:28:13;;;;;;;14.15;4.63;;;;;;;11.92;49.58;94897.78;10394214;28;20104;-78
2023/04/28 18:33:14;;;;;;;14.02;4.40;;;;;;;11.75;51.78;94909.69;10406437;28;20127;-78
2023/04/28 18:38:14;;;;;;;16.45;4.80;;;;;;;11.62;54.18;94910.28;10400627;28;20037;-80
2023/04/28 18:43:15;;;;;;;11.73;5.30;;;;;;;11.55;56.37;94920.53;10405714;28;21905;-76
2023/04/28 18:48:15;;;;;;;21.65;5.85;;;;;;;11.37;61.13;94912.00;10390896;28;20322;-78
2023/04/28 18:53:16;;;;;;;13.40;6.78;;;;;;;11.32;60.08;94917.38;10400485;28;20079;-81
2023/04/28 18:58:16;;;;;;;12.38;5.25;;;;;;;11.14;65.47;94928.72;10403673;28;20445;-84
2023/04/28 19:03:17;;;;;;;10.43;5.27;;;;;;;11.09;69.29;94918.75;10403089;28;20033;-80
2023/04/28 19:08:17;;;;;;;11.45;6.40;;;;;;;10.89;67.67;94923.06;10408597;28;20697;-84
2023/04/28 19:13:18;;;;;;;12.93;6.07;;;;;;;10.82;72.16;94919.88;10399897;28;20046;-83
2023/04/28 19:18:18;;;;;;;14.75;4.68;;;;;;;10.77;73.21;94919.84;10418281;28;20533;-78
2023/04/28 19:23:23;;;;;;;12.93;5.45;;;;;;;10.63;79.48;94911.53;10410800;28;20031;-84
2023/04/28 19:28:28;;;;;;;15.85;5.20;;;;;;;10.24;83.69;94922.75;10399598;28;20035;-76
2023/04/28 19:33:28;;;;;;;11.68;5.78;;;;;;;10.17;78.76;94914.16;10404876;28;20482;-74
2023/04/28 19:38:29;;;;;;;19.70;6.20;;;;;;;10.13;81.96;94913.88;10403978;28;20036;-75
2023/04/28 19:43:30;;;;;;;18.88;6.07;;;;;;;9.90;81.21;94920.53;10386291;28;20287;-77
2023/04/28 19:48:30;;;;;;;24.08;8.45;;;;;;;9.71;77.13;94912.13;10386611;28;20381;-77
2023/04/28 19:53:31;;;;;;;14.93;8.53;;;;;;;9.67;76.86;94909.19;10408263;28;20029;-79
2023/04/28 19:58:32;;;;;;;11.02;5.60;;;;;;;9.71;77.06;94907.59;10403418;28;20330;-79
2023/04/28 20:03:33;;;;;;;23.00;6.22;;;;;;;9.68;83.90;94910.78;10405562;28;20110;-76
2023/04/28 20:08:34;;;;;;;8.40;5.32;;;;;;;9.49;81.91;94907.78;10399945;28;20090;-76
2023/04/28 20:13:34;;;;;;;13.95;6.20;;;;;;;9.45;77.79;94908.56;10384567;28;20102;-77
2023/04/28 20:18:36;;;;;;;13.38;6.60;;;;;;;9.45;70.26;94905.88;10408407;28;20037;-75
2023/04/28 20:23:36;;;;;;;15.32;6.43;;;;;;;9.41;78.62;94902.91;10404792;28;20650;-76
2023/04/28 20:28:37;;;;;;;16.35;7.70;;;;;;;9.25;79.67;94904.69;10386066;28;20029;-75
2023/04/28 20:33:37;;;;;;;14.77;6.37;;;;;;;9.16;81.81;94903.59;10404314;28;20067;-76
2023/04/28 20:38:37;;;;;;;16.33;6.75;;;;;;;8.90;81.56;94898.06;10400953;28;20029;-74
2023/04/28 20:43:38;;;;;;;20.87;6.23;;;;;;;8.81;82.14;94894.25;10397977;28;20035;-75
2023/04/28 20:48:39;;;;;;;15.50;6.87;;;;;;;8.81;81.70;94887.00;10405101;28;20275;-75
2023/04/28 20:53:39;;;;;;;21.48;6.35;;;;;;;8.80;86.82;94888.06;10403356;28;20040;-75
2023/04/28 20:58:41;;;;;;;11.63;6.75;;;;;;;8.69;86.25;94889.91;10396554;28;20033;-76
2023/04/28 21:03:42;;;;;;;14.82;6.82;;;;;;;8.54;88.10;94881.75;10403733;28;20559;-77
2023/04/28 21:08:43;;;;;;;13.88;6.55;;;;;;;8.34;73.12;94901.91;10389028;28;20032;-78
2023/04/28 21:13:44;;;;;;;17.33;6.75;;;;;;;8.33;72.85;94902.16;10382331;28;20476;-78
2023/04/28 21:18:46;;;;;;;11.93;5.30;;;;;;;8.27;71.19;94893.25;10403845;28;20403;-77
2023/04/28 21:23:47;;;;;;;17.38;5.90;;;;;;;8.24;73.62;94906.38;10397870;28;20116;-78
2023/04/28 21:28:47;;;;;;;21.20;6.50;;;;;;;8.21;75.95;94896.97;10401422;28;20021;-78
2023/04/28 21:33:48;;;;;;;12.47;5.77;;;;;;;8.04;76.35;94889.84;10396683;28;20064;-78
2023/04/28 21:38:48;;;;;;;21.27;6.23;;;;;;;7.98;76.55;94888.19;10392027;28;20081;-77
2023/04/28 21:43:48;;;;;;;12.38;6.18;;;;;;;8.00;78.68;94882.59;10394829;28;20284;-76
2023/04/28 21:48:49;;;;;;;10.03;5.33;;;;;;;7.98;80.02;94882.84;10401112;28;20025;-76
2023/04/28 21:53:49;;;;;;;9.63;5.05;;;;;;;8.01;70.21;94886.88;10398525;28;20025;-75
2023/04/28 21:58:50;;;;;;;5.53;4.20;;;;;;;8.04;72.71;94881.03;10392016;28;20447;-80
2023/04/28 22:03:51;;;;;;;10.17;4.63;;;;;;;7.92;73.46;94881.16;10428338;28;20094;-79
2023/04/28 22:08:52;;;;;;;13.65;4.55;;;;;;;7.81;77.98;94882.91;10407879;28;20287;-78
2023/04/28 22:13:53;;;;;;;12.38;5.57;;;;;;;7.74;77.78;94881.50;10424001;28;20503;-78
2023/04/28 22:18:54;;;;;;;21.30;6.15;;;;;;;7.70;79.41;94881.19;10424012;28;20119;-79
2023/04/28 22:23:54;;;;;;;11.57;5.27;;;;;;;7.63;78.46;94878.75;10424275;28;20442;-78
2023/04/28 22:28:55;;;;;;;8.35;4.45;;;;;;;7.52;81.59;94876.97;10424844;28;20274;-78
2023/04/28 22:33:55;;;;;;;11.47;5.60;;;;;;;7.48;83.69;94873.19;10425425;28;20033;-79
2023/04/28 22:38:57;;;;;;;11.25;5.18;;;;;;;7.35;88.80;94869.88;10389484;28;20391;-79
2023/04/28 22:43:57;;;;;;;11.17;4.50;;;;;;;7.21;88.83;94865.94;10392403;28;20044;-78
2023/04/28 22:48:57;;;;;;;10.47;4.87;;;;;;;7.35;94.37;94869.88;10432677;28;20777;-79
2023/04/28 22:53:58;;;;;;;19.65;5.60;;;;;;;7.44;97.12;94853.38;10433019;28;20283;-79
2023/04/28 22:58:59;;;;;;;10.83;4.40;;;;;;;7.35;86.00;94853.81;10431581;28;20040;-78
2023/04/28 23:03:59;;;;;;;5.32;3.53;;;;;;;7.33;81.93;94847.09;10431159;28;20264;-78